createdAt,value
2018-06-03T00:00:38.473Z,29.60
2018-06-03T00:02:43.235Z,32.10
2018-06-03T00:04:48.021Z,32.63
2018-06-03T00:06:52.926Z,39.50
2018-06-03T00:08:57.545Z,34.27
2018-06-03T00:11:02.262Z,35.23
2018-06-03T00:13:06.916Z,35.00
2018-06-03T00:15:11.671Z,36.50
2018-06-03T00:17:16.298Z,35.47
2018-06-03T00:19:20.960Z,36.30
2018-06-03T00:21:42.054Z,44.07
2018-06-03T00:23:46.816Z,41.40
2018-06-03T00:25:51.498Z,36.97
2018-06-03T00:27:56.181Z,41.03
2018-06-03T00:30:00.911Z,38.47
2018-06-03T00:32:05.660Z,41.03
2018-06-03T00:34:10.293Z,45.90
2018-06-03T00:36:31.957Z,43.97
2018-06-03T00:38:36.637Z,40.30
2018-06-03T00:40:41.349Z,40.90
2018-06-03T00:42:46.363Z,47.63
2018-06-03T00:44:51.030Z,40.03
2018-06-03T00:46:55.713Z,43.13
2018-06-03T00:49:00.355Z,37.20
2018-06-03T00:51:05.063Z,36.00
2018-06-03T00:53:09.691Z,37.87
2018-06-03T00:55:14.490Z,36.97
2018-06-03T00:57:19.139Z,41.87
2018-06-03T00:59:23.794Z,45.97
2018-06-03T01:01:28.467Z,42.93
2018-06-03T01:03:33.123Z,46.23
2018-06-03T01:05:37.836Z,43.67
2018-06-03T01:07:42.527Z,45.40
2018-06-03T01:09:47.178Z,53.30
2018-06-03T01:11:51.974Z,47.27
2018-06-03T01:13:56.721Z,47.27
2018-06-03T01:16:01.318Z,51.47
2018-06-03T01:18:05.972Z,47.80
2018-06-03T01:20:10.700Z,49.73
2018-06-03T01:22:15.340Z,47.77
2018-06-03T01:24:19.971Z,51.50
2018-06-03T01:26:24.619Z,50.13
2018-06-03T01:28:29.254Z,67.30
2018-06-03T01:30:34.024Z,52.77
2018-06-03T01:32:38.717Z,52.27
2018-06-03T01:34:43.539Z,52.30
2018-06-03T01:36:48.334Z,51.60
2018-06-03T01:38:53.105Z,54.50
2018-06-03T01:40:57.797Z,44.30
2018-06-03T01:43:02.527Z,47.13
2018-06-03T01:45:07.286Z,47.67
2018-06-03T01:47:11.987Z,49.10
2018-06-03T01:49:16.619Z,49.60
2018-06-03T01:51:21.366Z,51.90
2018-06-03T01:53:26.050Z,47.87
2018-06-03T01:55:30.718Z,48.80
2018-06-03T01:57:35.357Z,52.00
2018-06-03T01:59:39.994Z,43.10
2018-06-03T02:01:44.711Z,46.27
2018-06-03T02:03:49.401Z,49.37
2018-06-03T02:05:54.186Z,52.70
2018-06-03T02:07:59.147Z,48.67
2018-06-03T02:10:03.912Z,46.73
2018-06-03T02:12:08.611Z,45.77
2018-06-03T02:14:13.326Z,49.53
2018-06-03T02:16:18.036Z,46.63
2018-06-03T02:18:22.807Z,49.33
2018-06-03T02:20:27.475Z,46.60
2018-06-03T02:22:32.224Z,56.07
2018-06-03T02:24:36.858Z,53.70
2018-06-03T02:26:41.477Z,43.20
2018-06-03T02:28:46.583Z,48.67
2018-06-03T02:30:51.285Z,49.80
2018-06-03T02:32:55.905Z,44.20
2018-06-03T02:35:00.586Z,47.97
2018-06-03T02:37:05.347Z,54.73
2018-06-03T02:39:09.947Z,61.00
2018-06-03T02:41:14.632Z,58.80
2018-06-03T02:43:19.274Z,54.30
2018-06-03T02:45:23.889Z,56.13
2018-06-03T02:47:28.590Z,52.40
2018-06-03T02:49:33.329Z,43.30
2018-06-03T02:51:37.989Z,53.07
2018-06-03T02:53:42.817Z,43.17
2018-06-03T02:55:47.613Z,45.67
2018-06-03T02:57:52.294Z,39.50
2018-06-03T02:59:56.954Z,43.30
2018-06-03T03:02:01.844Z,34.77
2018-06-03T03:04:06.479Z,36.20
2018-06-03T03:06:11.155Z,38.43
2018-06-03T03:08:15.850Z,33.33
2018-06-03T03:10:20.603Z,34.73
2018-06-03T03:12:25.282Z,43.10
2018-06-03T03:14:29.947Z,33.10
2018-06-03T03:16:34.556Z,36.43
2018-06-03T03:18:39.169Z,41.80
2018-06-03T03:20:43.853Z,40.63
2018-06-03T03:22:48.546Z,43.87
2018-06-03T03:24:53.237Z,36.93
2018-06-03T03:26:57.905Z,28.70
2018-06-03T03:29:02.725Z,31.10
2018-06-03T03:31:07.644Z,33.77
2018-06-03T03:33:12.317Z,32.33
2018-06-03T03:35:17.359Z,40.13
2018-06-03T03:37:22.180Z,31.57
2018-06-03T03:39:26.911Z,35.37
2018-06-03T03:41:32.141Z,34.00
2018-06-03T03:43:37.889Z,35.33
2018-06-03T03:45:43.573Z,39.93
2018-06-03T03:47:48.978Z,35.97
2018-06-03T03:49:55.239Z,34.97
2018-06-03T03:52:01.170Z,29.43
2018-06-03T03:54:06.320Z,35.10
2018-06-03T03:56:11.858Z,36.00
2018-06-03T03:58:17.189Z,32.27
2018-06-03T04:00:22.266Z,48.60
2018-06-03T04:02:27.342Z,33.97
2018-06-03T04:04:32.600Z,41.63
2018-06-03T04:06:38.059Z,39.23
2018-06-03T04:08:43.124Z,45.80
2018-06-03T04:10:48.559Z,43.47
2018-06-03T04:12:54.083Z,47.80
2018-06-03T04:15:00.221Z,41.33
2018-06-03T04:17:05.371Z,35.00
2018-06-03T04:19:10.708Z,41.50
2018-06-03T04:21:16.318Z,37.70
2018-06-03T04:23:22.458Z,42.03
2018-06-03T04:25:27.909Z,42.73
2018-06-03T04:27:33.353Z,42.87
2018-06-03T04:29:44.916Z,49.00
2018-06-03T04:31:50.114Z,46.63
2018-06-03T04:33:55.421Z,45.43
2018-06-03T04:36:00.809Z,47.13
2018-06-03T04:38:06.169Z,47.97
2018-06-03T04:40:11.505Z,58.93
2018-06-03T04:42:16.742Z,53.47
2018-06-03T04:44:22.058Z,56.97
2018-06-03T04:46:27.357Z,51.30
2018-06-03T04:48:32.736Z,47.67
2018-06-03T04:50:38.174Z,48.50
2018-06-03T04:52:43.395Z,48.97
2018-06-03T04:54:49.176Z,44.67
2018-06-03T04:56:54.384Z,45.67
2018-06-03T04:59:00.128Z,48.93
2018-06-03T05:01:05.745Z,40.23
2018-06-03T05:03:11.491Z,43.00
2018-06-03T05:05:17.193Z,41.80
2018-06-03T05:07:22.821Z,39.33
2018-06-03T05:09:28.383Z,38.97
2018-06-03T05:11:33.499Z,44.33
2018-06-03T05:13:38.977Z,39.70
2018-06-03T05:15:44.527Z,50.23
2018-06-03T05:17:50.048Z,44.83
2018-06-03T05:19:55.731Z,47.80
2018-06-03T05:22:01.964Z,52.43
2018-06-03T05:24:07.319Z,49.20
2018-06-03T05:26:19.390Z,52.90
2018-06-03T05:28:25.377Z,53.00
2018-06-03T05:30:31.595Z,54.47
2018-06-03T05:32:37.257Z,57.77
2018-06-03T05:34:42.805Z,55.90
2018-06-03T05:36:49.261Z,53.77
2018-06-03T05:38:55.170Z,63.03
2018-06-03T05:41:01.439Z,57.97
2018-06-03T05:43:06.895Z,60.40
2018-06-03T05:45:12.334Z,53.80
2018-06-03T05:47:18.226Z,59.40
2018-06-03T05:49:23.812Z,52.20
2018-06-03T05:51:29.456Z,54.30
2018-06-03T05:53:35.979Z,57.97
2018-06-03T05:55:42.460Z,54.20
2018-06-03T05:57:49.574Z,55.07
2018-06-03T05:59:56.650Z,59.63
2018-06-03T06:02:02.579Z,61.93
2018-06-03T06:04:08.036Z,54.63
2018-06-03T06:06:13.936Z,61.77
2018-06-03T06:08:19.368Z,54.20
2018-06-03T06:10:25.380Z,53.83
2018-06-03T06:12:31.592Z,70.63
2018-06-03T06:14:37.924Z,64.70
2018-06-03T06:16:43.516Z,63.03
2018-06-03T06:18:49.307Z,59.43
2018-06-03T06:20:55.165Z,58.57
2018-06-03T06:23:00.791Z,70.10
2018-06-03T06:25:06.684Z,64.10
2018-06-03T06:27:12.419Z,62.50
2018-06-03T06:29:17.876Z,54.70
2018-06-03T06:31:24.321Z,68.07
2018-06-03T06:33:30.234Z,65.87
2018-06-03T06:35:36.584Z,63.67
2018-06-03T06:37:42.229Z,63.40
2018-06-03T06:39:49.309Z,64.70
2018-06-03T06:41:55.349Z,57.83
2018-06-03T06:44:01.801Z,61.87
2018-06-03T06:46:08.112Z,59.87
2018-06-03T06:48:14.377Z,64.40
2018-06-03T06:50:20.868Z,61.67
2018-06-03T06:52:26.579Z,60.37
2018-06-03T06:54:33.064Z,60.17
2018-06-03T06:56:39.391Z,57.70
2018-06-03T06:58:46.176Z,55.80
2018-06-03T07:00:52.147Z,56.37
2018-06-03T07:02:57.994Z,57.73
2018-06-03T07:05:05.357Z,55.90
2018-06-03T07:07:11.584Z,53.73
2018-06-03T07:09:17.274Z,55.57
2018-06-03T07:11:23.564Z,60.20
2018-06-03T07:13:30.025Z,48.20
2018-06-03T07:15:36.697Z,51.57
2018-06-03T07:17:42.764Z,51.17
2018-06-03T07:19:49.370Z,54.20
2018-06-03T07:21:57.295Z,55.40
2018-06-03T07:24:03.355Z,51.47
2018-06-03T07:26:10.537Z,55.63
2018-06-03T07:28:16.776Z,49.57
2018-06-03T07:30:23.356Z,45.13
2018-06-03T07:32:30.612Z,45.07
2018-06-03T07:36:54.113Z,53.07
2018-06-03T07:39:03.496Z,51.97
2018-06-03T07:41:10.260Z,60.03
2018-06-03T07:43:16.014Z,48.93
2018-06-03T07:45:22.575Z,46.40
2018-06-03T07:47:28.816Z,46.00
2018-06-03T07:49:35.544Z,45.97
2018-06-03T07:51:42.271Z,51.90
2018-06-03T07:53:48.972Z,52.60
2018-06-03T07:55:55.513Z,53.50
2018-06-03T07:58:01.721Z,46.63
2018-06-03T08:00:10.036Z,51.93
2018-06-03T08:02:17.112Z,51.50
2018-06-03T08:04:23.336Z,54.73
2018-06-03T08:06:29.582Z,54.40
2018-06-03T08:08:36.237Z,57.47
2018-06-03T08:10:42.502Z,54.13
2018-06-03T08:12:49.053Z,44.47
2018-06-03T08:14:55.673Z,51.10
2018-06-03T08:17:01.968Z,50.30
2018-06-03T08:19:09.232Z,47.90
2018-06-03T08:21:15.839Z,54.90
2018-06-03T08:23:22.883Z,56.10
2018-06-03T08:25:30.138Z,54.87
2018-06-03T08:27:36.705Z,48.83
2018-06-03T08:29:42.900Z,44.00
2018-06-03T08:31:49.320Z,49.50
2018-06-03T08:33:54.528Z,49.53
2018-06-03T08:36:02.183Z,42.80
2018-06-03T08:38:08.300Z,49.40
2018-06-03T08:40:14.099Z,63.03
2018-06-03T08:42:20.672Z,51.63
2018-06-03T08:44:27.762Z,55.37
2018-06-03T08:46:33.829Z,57.37
2018-06-03T08:48:39.457Z,54.83
2018-06-03T08:50:46.275Z,65.80
2018-06-03T08:52:52.114Z,65.97
2018-06-03T08:54:57.482Z,60.03
2018-06-03T08:57:03.795Z,56.60
2018-06-03T08:59:09.668Z,62.47
2018-06-03T09:01:15.357Z,66.00
2018-06-03T09:03:21.800Z,64.73
2018-06-03T09:05:34.285Z,62.80
2018-06-03T09:07:39.962Z,58.03
2018-06-03T09:09:46.438Z,57.40
2018-06-03T09:11:52.819Z,63.23
2018-06-03T09:13:59.644Z,64.20
2018-06-03T09:16:05.906Z,69.23
2018-06-03T09:18:11.972Z,57.03
2018-06-03T09:20:17.762Z,58.30
2018-06-03T09:22:23.463Z,57.73
2018-06-03T09:24:29.494Z,63.03
2018-06-03T09:26:35.996Z,54.20
2018-06-03T09:28:41.810Z,51.03
2018-06-03T09:30:49.134Z,57.90
2018-06-03T09:32:54.860Z,61.97
2018-06-03T09:35:01.121Z,56.90
2018-06-03T09:37:06.929Z,54.37
2018-06-03T09:39:12.582Z,52.00
2018-06-03T09:41:18.169Z,40.50
2018-06-03T09:43:24.585Z,48.57
2018-06-03T09:45:30.033Z,41.40
2018-06-03T09:47:35.913Z,44.73
2018-06-03T09:49:42.079Z,42.53
2018-06-03T09:51:47.826Z,50.63
2018-06-03T09:54:00.541Z,47.00
2018-06-03T09:56:07.079Z,42.93
2018-06-03T09:58:15.420Z,44.10
2018-06-03T10:00:24.833Z,48.57
2018-06-03T10:02:34.794Z,43.50
2018-06-03T10:04:45.157Z,43.50
2018-06-03T10:06:55.283Z,45.50
2018-06-03T10:09:03.288Z,45.97
2018-06-03T10:11:09.614Z,47.73
2018-06-03T10:13:16.832Z,41.13
2018-06-03T10:15:26.097Z,40.07
2018-06-03T10:17:34.291Z,39.40
2018-06-03T10:19:42.923Z,43.57
2018-06-03T10:21:50.845Z,39.67
2018-06-03T10:23:57.573Z,40.77
2018-06-03T10:26:05.015Z,39.03
2018-06-03T10:28:11.410Z,42.60
2018-06-03T10:30:19.478Z,39.00
2018-06-03T10:32:27.064Z,41.20
2018-06-03T10:34:32.863Z,44.40
2018-06-03T10:36:40.299Z,41.63
2018-06-03T10:38:46.402Z,41.87
2018-06-03T10:40:52.468Z,50.73
2018-06-03T10:42:58.737Z,42.80
2018-06-03T10:45:05.095Z,42.53
2018-06-03T10:47:11.380Z,46.53
2018-06-03T10:49:17.651Z,38.10
2018-06-03T10:51:23.864Z,36.10
2018-06-03T10:53:29.862Z,37.67
2018-06-03T10:55:36.236Z,42.33
2018-06-03T10:57:43.015Z,39.57
2018-06-03T10:59:49.702Z,37.23
2018-06-03T11:01:55.843Z,39.10
2018-06-03T11:04:03.226Z,39.43
2018-06-03T11:06:09.641Z,33.57
2018-06-03T11:08:16.395Z,38.50
2018-06-03T11:10:24.187Z,38.13
2018-06-03T11:12:30.182Z,45.63
2018-06-03T11:14:37.113Z,36.77
2018-06-03T11:16:43.451Z,35.17
2018-06-03T11:18:49.652Z,29.10
2018-06-03T11:20:56.761Z,40.70
2018-06-03T11:23:01.846Z,31.50
2018-06-03T11:25:08.780Z,38.87
2018-06-03T11:27:15.237Z,41.43
2018-06-03T11:29:22.259Z,32.60
2018-06-03T11:31:28.137Z,36.57
2018-06-03T11:33:34.555Z,36.30
2018-06-03T11:35:41.324Z,41.63
2018-06-03T11:37:48.015Z,38.80
2018-06-03T11:39:55.567Z,36.60
2018-06-03T11:42:01.496Z,37.97
2018-06-03T11:44:08.470Z,35.53
2018-06-03T11:46:14.085Z,34.37
2018-06-03T11:48:21.450Z,35.63
2018-06-03T11:50:31.806Z,37.57
2018-06-03T11:52:37.913Z,42.37
2018-06-03T11:54:44.467Z,39.30
2018-06-03T11:57:01.712Z,35.47
2018-06-03T11:59:45.655Z,38.90
2018-06-03T12:01:52.302Z,38.50
2018-06-03T12:03:59.159Z,49.10
2018-06-03T12:06:06.419Z,49.93
2018-06-03T12:08:12.265Z,49.90
2018-06-03T12:10:18.911Z,44.03
2018-06-03T12:12:26.064Z,44.70
2018-06-03T12:14:32.030Z,46.03
2018-06-03T12:16:37.727Z,48.47
2018-06-03T12:18:44.334Z,46.23
2018-06-03T12:20:50.144Z,50.70
2018-06-03T12:22:56.261Z,46.90
2018-06-03T12:25:02.532Z,44.77
2018-06-03T12:27:08.766Z,44.60
2018-06-03T12:29:14.735Z,49.57
2018-06-03T12:31:22.118Z,48.77
2018-06-03T12:33:28.558Z,45.00
2018-06-03T12:35:34.413Z,38.20
2018-06-03T12:37:41.257Z,44.90
2018-06-03T12:39:49.519Z,42.23
2018-06-03T12:41:57.002Z,45.30
2018-06-03T12:44:03.630Z,47.63
2018-06-03T12:46:11.400Z,44.50
2018-06-03T12:48:18.664Z,43.47
2018-06-03T12:50:24.157Z,40.03
2018-06-03T12:52:30.268Z,42.70
2018-06-03T12:54:35.637Z,46.73
2018-06-03T12:56:42.089Z,43.83
2018-06-03T12:58:47.717Z,43.90
2018-06-03T13:00:54.185Z,48.97
2018-06-03T13:03:00.293Z,41.50
2018-06-03T13:05:06.183Z,42.37
2018-06-03T13:07:12.844Z,51.60
2018-06-03T13:09:19.729Z,41.97
2018-06-03T13:11:26.021Z,44.83
2018-06-03T13:13:32.889Z,51.90
2018-06-03T13:15:38.714Z,46.60
2018-06-03T13:17:44.435Z,52.17
2018-06-03T13:19:50.032Z,48.53
2018-06-03T13:21:55.652Z,43.43
2018-06-03T13:24:01.860Z,46.33
2018-06-03T13:26:08.103Z,46.53
2018-06-03T13:28:14.254Z,43.07
2018-06-03T13:30:21.143Z,44.10
2018-06-03T13:32:29.653Z,43.93
2018-06-03T13:34:36.692Z,43.57
2018-06-03T13:36:45.161Z,45.20
2018-06-03T13:38:51.326Z,42.63
2018-06-03T13:40:57.325Z,48.27
2018-06-03T13:43:04.515Z,47.73
2018-06-03T13:45:17.894Z,44.10
2018-06-03T13:47:25.184Z,42.13
2018-06-03T13:49:33.047Z,42.80
2018-06-03T13:51:39.995Z,44.97
2018-06-03T13:53:49.251Z,41.13
2018-06-03T13:56:01.364Z,41.73
2018-06-03T13:58:06.368Z,35.17
2018-06-03T14:00:13.237Z,39.87
2018-06-03T14:02:18.923Z,37.40
2018-06-03T14:04:25.917Z,43.47
2018-06-03T14:06:31.429Z,40.00
2018-06-03T14:08:36.581Z,33.10
2018-06-03T14:10:41.747Z,38.80
2018-06-03T14:12:47.067Z,38.00
2018-06-03T14:14:52.249Z,38.43
2018-06-03T14:16:57.623Z,38.37
2018-06-03T14:19:03.188Z,37.07
2018-06-03T14:21:08.528Z,32.83
2018-06-03T14:23:15.892Z,39.10
2018-06-03T14:25:22.989Z,46.77
2018-06-03T14:27:30.319Z,35.67
2018-06-03T14:29:36.737Z,36.67
2018-06-03T14:31:43.784Z,33.23
2018-06-03T14:33:49.744Z,31.63
2018-06-03T14:35:55.282Z,35.27
2018-06-03T14:38:00.459Z,37.73
2018-06-03T14:40:06.463Z,37.00
2018-06-03T14:42:14.067Z,32.70
2018-06-03T14:44:22.233Z,36.37
2018-06-03T14:46:28.561Z,38.13
2018-06-03T14:48:35.098Z,30.00
2018-06-03T14:50:44.159Z,32.57
2018-06-03T14:52:48.966Z,34.33
2018-06-03T14:54:53.773Z,32.60
2018-06-03T14:56:58.790Z,32.23
2018-06-03T14:59:04.650Z,35.03
2018-06-03T15:01:09.467Z,32.33
2018-06-03T15:03:14.289Z,32.20
2018-06-03T15:05:19.307Z,35.20
2018-06-03T15:07:24.145Z,37.60
2018-06-03T15:09:29.618Z,29.43
2018-06-03T15:11:35.710Z,27.70
2018-06-03T15:13:40.628Z,36.00
2018-06-03T15:15:45.830Z,34.73
2018-06-03T15:17:50.856Z,34.00
2018-06-03T15:19:55.676Z,33.33
2018-06-03T15:22:00.514Z,33.60
2018-06-03T15:24:07.684Z,34.87
2018-06-03T15:30:37.144Z,30.83
2018-06-03T15:32:42.423Z,38.07
2018-06-03T15:34:49.941Z,32.43
2018-06-03T15:36:55.906Z,33.97
2018-06-03T15:39:03.555Z,37.00
2018-06-03T15:41:10.365Z,37.50
2018-06-03T15:43:16.473Z,36.43
2018-06-03T15:45:22.857Z,33.03
2018-06-03T15:47:28.985Z,34.90
2018-06-03T15:49:33.744Z,39.53
2018-06-03T15:51:39.342Z,35.83
2018-06-03T15:53:44.183Z,29.17
2018-06-03T15:55:48.983Z,30.33
2018-06-03T15:57:53.770Z,27.93
2018-06-03T15:59:58.457Z,33.47
2018-06-03T16:02:03.290Z,30.93
2018-06-03T16:04:08.123Z,28.23
2018-06-03T16:06:12.989Z,27.20
2018-06-03T16:08:18.250Z,26.73
2018-06-03T16:10:24.921Z,29.13
2018-06-03T16:12:29.487Z,27.70
2018-06-03T16:14:34.461Z,28.53
2018-06-03T16:18:54.967Z,25.10
2018-06-03T16:21:00.247Z,24.97
2018-06-03T16:23:04.789Z,24.53
2018-06-03T16:25:09.689Z,27.50
2018-06-03T16:27:14.546Z,24.70
2018-06-03T16:29:19.536Z,23.37
2018-06-03T16:31:24.486Z,25.63
2018-06-03T16:33:29.301Z,22.90
2018-06-03T16:35:34.873Z,25.50
2018-06-03T16:37:39.731Z,22.87
2018-06-03T16:39:46.978Z,24.73
2018-06-03T16:41:52.437Z,22.70
2018-06-03T16:43:57.487Z,21.80
2018-06-03T16:46:02.585Z,18.30
2018-06-03T16:48:07.642Z,34.63
2018-06-03T16:50:14.784Z,20.57
2018-06-03T16:52:22.097Z,18.47
2018-06-03T16:54:29.323Z,18.10
2018-06-03T16:56:37.153Z,16.57
2018-06-03T16:58:44.770Z,20.67
2018-06-03T17:00:50.129Z,20.10
2018-06-03T17:02:55.942Z,17.93
2018-06-03T17:05:00.762Z,17.47
2018-06-03T17:07:06.676Z,25.97
2018-06-03T17:09:11.733Z,21.50
2018-06-03T17:11:16.663Z,23.20
2018-06-03T17:13:21.750Z,25.70
2018-06-03T17:15:26.719Z,21.10
2018-06-03T17:17:32.007Z,23.90
2018-06-03T17:19:37.304Z,22.60
2018-06-03T17:21:42.859Z,21.13
2018-06-03T17:23:47.722Z,19.10
2018-06-03T17:25:53.120Z,15.60
2018-06-03T17:27:59.823Z,22.47
2018-06-03T17:30:06.498Z,21.13
2018-06-03T17:32:12.185Z,23.37
2018-06-03T17:34:17.168Z,14.80
2018-06-03T17:36:22.117Z,17.20
2018-06-03T17:38:27.053Z,20.40
2018-06-03T17:40:32.573Z,16.90
2018-06-03T17:42:37.380Z,14.70
2018-06-03T17:44:43.136Z,31.27
2018-06-03T17:46:48.012Z,136.33
2018-06-03T17:48:52.774Z,64.57
2018-06-03T17:50:58.237Z,36.23
2018-06-03T17:53:03.141Z,18.87
2018-06-03T17:55:09.088Z,26.63
2018-06-03T17:57:14.637Z,13.23
2018-06-03T17:59:19.502Z,15.47
2018-06-03T18:01:24.281Z,18.37
2018-06-03T18:03:29.039Z,12.50
2018-06-03T18:05:33.799Z,14.03
2018-06-03T18:07:38.375Z,21.47
2018-06-03T18:09:43.325Z,15.20
2018-06-03T18:11:48.275Z,12.63
2018-06-03T18:13:54.036Z,11.87
2018-06-03T18:15:59.002Z,15.60
2018-06-03T18:18:04.117Z,11.97
2018-06-03T18:20:08.942Z,13.33
2018-06-03T18:22:14.466Z,12.77
2018-06-03T18:26:26.539Z,11.73
2018-06-03T18:28:31.388Z,13.43
2018-06-03T18:30:36.488Z,12.50
2018-06-03T18:32:42.440Z,13.70
2018-06-03T18:34:47.922Z,13.47
2018-06-03T18:36:52.903Z,14.40
2018-06-03T18:38:58.073Z,16.23
2018-06-03T18:41:04.450Z,12.47
2018-06-03T18:43:09.511Z,14.90
2018-06-03T18:45:15.455Z,19.57
2018-06-03T18:47:20.393Z,16.00
2018-06-03T18:49:26.219Z,13.80
2018-06-03T18:51:31.610Z,16.10
2018-06-03T18:53:37.263Z,13.67
2018-06-03T18:55:43.134Z,15.87
2018-06-03T18:57:48.477Z,12.40
2018-06-03T19:00:01.259Z,12.97
2018-06-03T19:02:08.131Z,15.40
2018-06-03T19:04:13.719Z,14.67
2018-06-03T19:06:20.787Z,15.20
2018-06-03T19:08:27.660Z,14.97
2018-06-03T19:10:38.447Z,19.07
2018-06-03T19:12:44.433Z,13.30
2018-06-03T19:14:50.474Z,15.27
2018-06-03T19:16:57.827Z,14.60
2018-06-03T19:19:07.325Z,22.63
2018-06-03T19:21:13.929Z,16.63
2018-06-03T19:23:21.201Z,12.63
2018-06-03T19:25:28.181Z,14.80
2018-06-03T19:27:35.378Z,21.50
2018-06-03T19:29:41.868Z,17.00
2018-06-03T19:31:47.353Z,16.27
2018-06-03T19:33:52.433Z,18.20
2018-06-03T19:35:57.830Z,14.43
2018-06-03T19:38:05.503Z,17.03
2018-06-03T19:40:20.466Z,15.13
2018-06-03T19:42:28.338Z,22.60
2018-06-03T19:44:34.900Z,18.40
2018-06-03T19:46:39.893Z,13.43
2018-06-03T19:48:50.794Z,15.80
2018-06-03T19:51:00.633Z,16.30
2018-06-03T19:53:07.249Z,15.57
2018-06-03T19:55:12.589Z,16.20
2018-06-03T19:57:17.699Z,14.80
2018-06-03T19:59:23.585Z,15.00
2018-06-03T20:01:28.541Z,11.83
2018-06-03T20:03:34.338Z,17.37
2018-06-03T20:05:39.087Z,14.83
2018-06-03T20:07:44.076Z,15.40
2018-06-03T20:09:49.027Z,15.40
2018-06-03T20:11:54.807Z,22.77
2018-06-03T20:14:00.320Z,13.50
2018-06-03T20:16:05.232Z,17.03
2018-06-03T20:18:10.562Z,16.80
2018-06-03T20:20:16.030Z,17.90
2018-06-03T20:22:21.074Z,22.90
2018-06-03T20:24:25.920Z,12.60
2018-06-03T20:26:36.765Z,24.17
2018-06-03T20:28:42.810Z,16.10
2018-06-03T20:30:47.669Z,17.00
2018-06-03T20:32:52.846Z,17.20
2018-06-03T20:34:57.537Z,18.60
2018-06-03T20:37:02.407Z,17.10
2018-06-03T20:39:09.113Z,19.97
2018-06-03T20:41:13.783Z,14.00
2018-06-03T20:43:18.737Z,18.90
2018-06-03T20:45:23.781Z,18.23
2018-06-03T20:47:28.900Z,15.27
2018-06-03T20:49:33.723Z,18.40
2018-06-03T20:51:38.649Z,14.70
2018-06-03T20:53:43.623Z,16.43
2018-06-03T20:55:48.432Z,16.20
2018-06-03T20:57:53.201Z,12.40
2018-06-03T20:59:58.360Z,14.67
2018-06-03T21:02:09.784Z,12.63
2018-06-03T21:04:14.971Z,14.53
2018-06-03T21:06:19.862Z,14.53
2018-06-03T21:08:24.598Z,16.13
2018-06-03T21:10:29.571Z,15.83
2018-06-03T21:12:34.354Z,21.03
2018-06-03T21:14:39.054Z,11.03
2018-06-03T21:16:44.249Z,14.67
2018-06-03T21:18:49.388Z,13.87
2018-06-03T21:20:54.226Z,12.77
2018-06-03T21:22:59.104Z,17.10
2018-06-03T21:25:04.003Z,13.70
2018-06-03T21:27:08.760Z,11.67
2018-06-03T21:29:13.176Z,16.17
2018-06-03T21:31:18.430Z,14.87
2018-06-03T21:33:23.404Z,15.20
2018-06-03T21:35:28.249Z,13.10
2018-06-03T21:37:33.350Z,10.97
2018-06-03T21:39:38.474Z,12.60
2018-06-03T21:41:43.463Z,13.73
2018-06-03T21:43:48.503Z,18.00
2018-06-03T21:45:53.355Z,15.43
2018-06-03T21:47:58.336Z,14.20
2018-06-03T21:50:03.206Z,11.70
2018-06-03T21:52:07.878Z,17.20
2018-06-03T21:54:12.820Z,14.20
2018-06-03T21:56:18.040Z,20.13
2018-06-03T21:58:23.329Z,14.20
2018-06-03T22:00:28.602Z,18.70
2018-06-03T22:02:33.666Z,12.47
2018-06-03T22:04:38.534Z,15.20
2018-06-03T22:06:43.595Z,14.20
2018-06-03T22:08:48.475Z,14.40
2018-06-03T22:10:53.608Z,15.33
2018-06-03T22:12:58.522Z,14.20
2018-06-03T22:15:03.331Z,12.63
2018-06-03T22:17:08.574Z,12.50
2018-06-03T22:19:13.890Z,15.73
2018-06-03T22:21:20.043Z,14.37
2018-06-03T22:23:25.437Z,12.90
2018-06-03T22:25:30.644Z,14.17
2018-06-03T22:27:35.843Z,14.40
2018-06-03T22:29:44.171Z,18.67
2018-06-03T22:31:48.896Z,18.30
2018-06-03T22:33:53.828Z,15.40
2018-06-03T22:35:58.805Z,14.97
2018-06-03T22:38:03.967Z,13.77
2018-06-03T22:40:09.130Z,13.63
2018-06-03T22:42:14.300Z,14.93
2018-06-03T22:44:20.468Z,16.03
2018-06-03T22:46:25.361Z,14.80
2018-06-03T22:48:30.144Z,17.20
2018-06-03T22:50:34.903Z,14.97
2018-06-03T22:52:39.617Z,14.50
2018-06-03T22:54:44.484Z,12.33
2018-06-03T22:58:06.929Z,16.80
2018-06-03T23:00:14.633Z,15.80
2018-06-03T23:02:19.547Z,17.13
2018-06-03T23:04:24.573Z,15.53
2018-06-03T23:06:29.315Z,13.50
2018-06-03T23:08:34.125Z,17.63
2018-06-03T23:10:38.962Z,16.70
2018-06-03T23:12:43.717Z,15.20
2018-06-03T23:14:48.439Z,18.57
2018-06-03T23:16:53.311Z,16.63
2018-06-03T23:18:58.077Z,18.53
2018-06-03T23:21:02.882Z,16.77
2018-06-03T23:23:07.610Z,18.60
2018-06-03T23:25:12.363Z,14.80
2018-06-03T23:27:17.118Z,16.30
2018-06-03T23:29:21.822Z,16.53
2018-06-03T23:31:26.637Z,22.30
2018-06-03T23:33:31.390Z,17.50
2018-06-03T23:35:36.088Z,18.63
2018-06-03T23:37:40.838Z,16.30
2018-06-03T23:39:45.514Z,17.17
2018-06-03T23:41:50.196Z,15.50
2018-06-03T23:43:54.839Z,16.70
2018-06-03T23:45:59.543Z,18.87
2018-06-03T23:48:04.269Z,16.97
2018-06-03T23:50:08.960Z,20.33
2018-06-03T23:52:13.637Z,16.00
2018-06-03T23:54:18.337Z,16.70
2018-06-03T23:56:22.969Z,16.43
2018-06-03T23:58:27.665Z,19.47
